createdAt,value
2022-12-24T00:01:10.257Z,2.38
2022-12-24T00:03:15.605Z,2.28
2022-12-24T00:05:23.265Z,2.40
2022-12-24T00:07:28.313Z,2.45
2022-12-24T00:09:33.446Z,2.63
2022-12-24T00:11:38.355Z,2.97
2022-12-24T00:13:43.328Z,2.08
2022-12-24T00:15:49.013Z,2.22
2022-12-24T00:17:54.305Z,2.95
2022-12-24T00:19:59.602Z,2.25
2022-12-24T00:22:07.448Z,2.38
2022-12-24T00:24:12.544Z,2.70
2022-12-24T00:26:18.125Z,1.92
2022-12-24T00:28:23.440Z,2.80
2022-12-24T00:30:28.721Z,2.35
2022-12-24T00:32:33.664Z,2.20
2022-12-24T00:34:38.998Z,1.98
2022-12-24T00:36:44.724Z,1.80
2022-12-24T00:38:52.238Z,2.42
2022-12-24T00:41:03.210Z,2.28
2022-12-24T00:43:08.144Z,2.65
2022-12-24T00:45:14.939Z,2.85
2022-12-24T00:47:20.204Z,2.28
2022-12-24T00:49:25.465Z,2.17
2022-12-24T00:51:30.631Z,2.13
2022-12-24T00:53:35.902Z,2.35
2022-12-24T00:55:43.367Z,2.58
2022-12-24T00:57:48.934Z,2.28
2022-12-24T00:59:53.832Z,2.42
2022-12-24T01:01:59.209Z,2.00
2022-12-24T01:04:16.474Z,2.25
2022-12-24T01:06:24.698Z,2.33
2022-12-24T01:08:30.175Z,2.13
2022-12-24T01:10:35.375Z,2.00
2022-12-24T01:12:43.572Z,2.20
2022-12-24T01:14:48.641Z,1.65
2022-12-24T01:16:53.537Z,1.80
2022-12-24T01:18:59.232Z,1.92
2022-12-24T01:21:06.780Z,2.00
2022-12-24T01:23:11.725Z,3.03
2022-12-24T01:25:18.223Z,2.03
2022-12-24T01:27:23.442Z,2.60
2022-12-24T01:29:31.356Z,2.00
2022-12-24T01:31:36.664Z,2.03
2022-12-24T01:33:41.634Z,1.75
2022-12-24T01:35:47.581Z,2.33
2022-12-24T01:37:53.228Z,1.55
2022-12-24T01:40:18.404Z,1.83
2022-12-24T01:42:39.365Z,1.77
2022-12-24T01:44:51.567Z,1.73
2022-12-24T01:47:05.642Z,1.73
2022-12-24T01:49:14.504Z,3.10
2022-12-24T01:51:28.415Z,1.77
2022-12-24T01:53:37.444Z,1.90
2022-12-24T01:55:44.450Z,1.75
2022-12-24T01:57:56.428Z,2.00
2022-12-24T02:00:13.736Z,1.45
2022-12-24T02:02:20.024Z,2.58
2022-12-24T02:04:35.323Z,3.13
2022-12-24T02:06:40.424Z,1.50
2022-12-24T02:08:46.128Z,1.60
2022-12-24T02:10:52.544Z,2.58
2022-12-24T02:12:58.130Z,2.63
2022-12-24T02:15:07.008Z,1.50
2022-12-24T02:17:23.791Z,2.33
2022-12-24T02:20:40.806Z,2.53
2022-12-24T02:23:10.122Z,2.15
2022-12-24T02:25:41.183Z,1.58
2022-12-24T02:28:00.554Z,1.60
2022-12-24T02:30:22.549Z,1.80
2022-12-24T02:32:33.347Z,1.90
2022-12-24T02:34:43.324Z,1.77
2022-12-24T02:36:58.359Z,2.75
2022-12-24T02:39:08.836Z,2.70
2022-12-24T02:41:23.443Z,1.67
2022-12-24T02:43:36.190Z,2.15
2022-12-24T02:45:51.368Z,1.33
2022-12-24T02:48:00.903Z,1.77
2022-12-24T02:50:10.639Z,1.85
2022-12-24T02:52:34.473Z,1.60
2022-12-24T02:57:05.830Z,2.30
2022-12-24T03:00:02.407Z,1.77
2022-12-24T03:02:21.753Z,2.15
2022-12-24T03:04:47.392Z,1.98
2022-12-24T03:07:00.600Z,1.90
2022-12-24T03:11:17.180Z,2.78
2022-12-24T03:13:25.584Z,2.20
2022-12-24T03:15:32.606Z,1.80
2022-12-24T03:17:43.583Z,2.88
2022-12-24T03:19:49.868Z,2.22
2022-12-24T03:21:57.303Z,2.13
2022-12-24T03:24:03.388Z,1.92
2022-12-24T03:26:13.490Z,3.08
2022-12-24T03:28:21.776Z,2.42
2022-12-24T03:30:28.757Z,2.35
2022-12-24T03:32:35.495Z,2.28
2022-12-24T03:34:43.556Z,2.13
2022-12-24T03:36:50.169Z,2.17
2022-12-24T03:38:55.755Z,2.33
2022-12-24T03:41:00.729Z,1.92
2022-12-24T03:43:06.199Z,1.98
2022-12-24T03:45:13.443Z,2.35
2022-12-24T03:47:18.991Z,2.50
2022-12-24T03:49:24.301Z,2.60
2022-12-24T03:51:33.347Z,1.95
2022-12-24T03:53:38.592Z,2.80
2022-12-24T03:55:44.164Z,2.88
2022-12-24T03:57:49.497Z,2.75
2022-12-24T03:59:55.294Z,2.45
2022-12-24T04:02:00.585Z,2.40
2022-12-24T04:04:05.680Z,2.60
2022-12-24T04:06:13.454Z,2.60
2022-12-24T04:08:21.366Z,2.80
2022-12-24T04:10:26.315Z,2.28
2022-12-24T04:12:31.246Z,2.95
2022-12-24T04:14:37.112Z,2.75
2022-12-24T04:16:42.150Z,2.35
2022-12-24T04:18:48.042Z,2.53
2022-12-24T04:20:53.367Z,4.28
2022-12-24T04:22:58.288Z,2.97
2022-12-24T04:25:06.512Z,2.38
2022-12-24T04:27:11.511Z,2.75
2022-12-24T04:29:16.609Z,2.70
2022-12-24T04:31:21.886Z,3.15
2022-12-24T04:33:27.606Z,3.75
2022-12-24T04:35:32.531Z,2.63
2022-12-24T04:37:37.780Z,3.95
2022-12-24T04:39:43.216Z,2.20
2022-12-24T04:41:50.821Z,2.60
2022-12-24T04:43:57.636Z,2.83
2022-12-24T04:46:08.697Z,3.55
2022-12-24T04:48:14.039Z,2.80
2022-12-24T04:50:19.477Z,2.33
2022-12-24T04:52:24.406Z,2.40
2022-12-24T04:54:29.851Z,2.05
2022-12-24T04:56:36.431Z,3.63
2022-12-24T04:58:44.270Z,2.67
2022-12-24T05:00:49.290Z,2.83
2022-12-24T05:02:54.711Z,3.00
2022-12-24T05:04:59.737Z,2.92
2022-12-24T05:07:04.911Z,1.80
2022-12-24T05:09:10.195Z,2.85
2022-12-24T05:11:16.419Z,2.63
2022-12-24T05:13:21.352Z,2.67
2022-12-24T05:15:29.221Z,2.35
2022-12-24T05:17:34.164Z,2.40
2022-12-24T05:19:39.067Z,2.42
2022-12-24T05:21:44.376Z,2.50
2022-12-24T05:24:02.222Z,3.17
2022-12-24T05:26:23.806Z,2.88
2022-12-24T05:28:28.984Z,2.53
2022-12-24T05:30:37.082Z,2.50
2022-12-24T05:32:41.988Z,2.92
2022-12-24T05:34:46.918Z,2.50
2022-12-24T05:36:52.040Z,2.85
2022-12-24T05:38:57.250Z,2.60
2022-12-24T05:41:02.189Z,3.25
2022-12-24T05:43:07.247Z,2.70
2022-12-24T05:45:13.511Z,2.78
2022-12-24T05:47:20.998Z,2.70
2022-12-24T05:49:25.923Z,3.13
2022-12-24T05:51:30.874Z,2.58
2022-12-24T05:53:36.457Z,2.53
2022-12-24T05:55:42.675Z,3.35
2022-12-24T05:57:47.612Z,2.72
2022-12-24T05:59:52.563Z,3.05
2022-12-24T06:01:57.987Z,2.67
2022-12-24T06:04:05.744Z,2.80
2022-12-24T06:06:13.748Z,2.97
2022-12-24T06:08:18.865Z,2.65
2022-12-24T06:10:23.899Z,2.67
2022-12-24T06:12:29.460Z,3.70
2022-12-24T06:14:34.867Z,3.15
2022-12-24T06:16:39.894Z,3.08
2022-12-24T06:18:45.918Z,2.97
2022-12-24T06:20:56.932Z,3.15
2022-12-24T06:23:01.815Z,3.38
2022-12-24T06:25:07.772Z,3.83
2022-12-24T06:27:12.675Z,3.63
2022-12-24T06:29:17.591Z,3.60
2022-12-24T06:31:24.981Z,3.88
2022-12-24T06:33:30.585Z,2.50
2022-12-24T06:35:35.753Z,3.60
2022-12-24T06:37:43.257Z,2.97
2022-12-24T06:39:48.794Z,2.50
2022-12-24T06:41:54.163Z,3.72
2022-12-24T06:43:59.433Z,3.22
2022-12-24T06:46:06.166Z,2.88
2022-12-24T06:48:11.980Z,2.60
2022-12-24T06:50:17.083Z,2.85
2022-12-24T06:52:22.203Z,3.20
2022-12-24T06:54:29.707Z,2.33
2022-12-24T06:56:34.699Z,3.13
2022-12-24T06:58:40.985Z,2.70
2022-12-24T07:00:45.964Z,3.30
2022-12-24T07:02:51.531Z,3.20
2022-12-24T07:04:56.886Z,4.70
2022-12-24T07:07:01.861Z,2.90
2022-12-24T07:09:06.928Z,3.50
2022-12-24T07:11:14.876Z,3.45
2022-12-24T07:13:20.378Z,3.17
2022-12-24T07:15:25.327Z,3.90
2022-12-24T07:17:30.821Z,3.35
2022-12-24T07:19:35.945Z,3.40
2022-12-24T07:21:41.108Z,4.25
2022-12-24T07:23:46.023Z,3.03
2022-12-24T07:25:51.303Z,3.92
2022-12-24T07:27:59.348Z,3.65
2022-12-24T07:30:04.298Z,3.60
2022-12-24T07:32:09.331Z,3.38
2022-12-24T07:34:14.926Z,3.53
2022-12-24T07:36:23.468Z,3.72
2022-12-24T07:38:28.928Z,3.58
2022-12-24T07:40:36.243Z,4.13
2022-12-24T07:42:41.321Z,3.88
2022-12-24T07:44:52.163Z,3.30
2022-12-24T07:46:57.136Z,4.38
2022-12-24T07:49:02.097Z,4.13
2022-12-24T07:51:07.744Z,3.22
2022-12-24T07:53:12.671Z,5.30
2022-12-24T07:55:17.824Z,4.75
2022-12-24T07:57:22.727Z,6.05
2022-12-24T07:59:28.266Z,6.68
2022-12-24T08:01:35.836Z,5.10
2022-12-24T08:03:41.436Z,6.47
2022-12-24T08:05:46.470Z,5.32
2022-12-24T08:07:51.719Z,9.45
2022-12-24T08:09:56.837Z,3.80
2022-12-24T08:12:02.444Z,3.65
2022-12-24T08:14:07.395Z,4.22
2022-12-24T08:16:12.461Z,3.30
2022-12-24T08:18:20.027Z,3.70
2022-12-24T08:20:25.350Z,4.05
2022-12-24T08:22:31.318Z,3.80
2022-12-24T08:24:37.537Z,4.60
2022-12-24T08:26:42.666Z,4.55
2022-12-24T08:28:47.620Z,3.50
2022-12-24T08:30:54.038Z,4.57
2022-12-24T08:32:59.004Z,3.50
2022-12-24T08:35:07.920Z,3.67
2022-12-24T08:37:13.505Z,3.17
2022-12-24T08:39:18.443Z,3.10
2022-12-24T08:41:23.700Z,4.03
2022-12-24T08:43:29.362Z,3.45
2022-12-24T08:45:40.104Z,3.30
2022-12-24T08:47:46.982Z,3.55
2022-12-24T08:49:51.883Z,3.33
2022-12-24T08:52:00.155Z,3.70
2022-12-24T08:54:05.081Z,3.10
2022-12-24T08:56:13.020Z,2.88
2022-12-24T08:58:18.064Z,3.13
2022-12-24T09:00:24.064Z,2.72
2022-12-24T09:02:29.028Z,3.05
2022-12-24T09:04:34.212Z,3.75
2022-12-24T09:06:40.204Z,3.90
2022-12-24T09:08:47.879Z,3.10
2022-12-24T09:10:53.533Z,3.20
2022-12-24T09:12:58.538Z,3.38
2022-12-24T09:15:04.292Z,2.80
2022-12-24T09:17:09.809Z,2.45
2022-12-24T09:19:15.030Z,3.50
2022-12-24T09:21:20.352Z,2.85
2022-12-24T09:23:25.283Z,3.05
2022-12-24T09:25:33.161Z,3.58
2022-12-24T09:27:38.651Z,3.05
2022-12-24T09:29:43.583Z,2.20
2022-12-24T09:31:50.084Z,2.75
2022-12-24T09:33:55.457Z,2.20
2022-12-24T09:36:00.462Z,4.32
2022-12-24T09:38:05.716Z,2.30
2022-12-24T09:40:28.306Z,2.95
2022-12-24T09:42:51.359Z,3.00
2022-12-24T09:45:05.799Z,2.55
2022-12-24T09:47:21.420Z,3.20
2022-12-24T09:49:32.222Z,3.63
2022-12-24T09:51:42.351Z,3.15
2022-12-24T09:53:54.260Z,3.45
2022-12-24T09:56:04.084Z,4.35
2022-12-24T09:58:25.007Z,3.50
2022-12-24T10:00:33.611Z,3.88
2022-12-24T10:02:38.647Z,4.22
2022-12-24T10:04:45.444Z,3.72
2022-12-24T10:06:57.296Z,5.32
2022-12-24T10:09:15.818Z,3.92
2022-12-24T10:11:30.602Z,4.40
2022-12-24T10:13:56.894Z,4.50
2022-12-24T10:16:09.887Z,3.88
2022-12-24T10:18:29.910Z,4.38
2022-12-24T10:20:48.173Z,4.35
2022-12-24T10:23:01.962Z,5.22
2022-12-24T10:25:20.206Z,4.68
2022-12-24T10:27:32.360Z,3.88
2022-12-24T10:29:45.865Z,4.97
2022-12-24T10:31:59.547Z,3.92
2022-12-24T10:34:09.855Z,3.90
2022-12-24T10:36:20.126Z,5.38
2022-12-24T10:38:25.795Z,4.05
2022-12-24T10:40:38.880Z,4.35
2022-12-24T10:42:51.039Z,4.57
2022-12-24T10:45:05.756Z,3.63
2022-12-24T10:47:13.261Z,4.10
2022-12-24T10:49:21.771Z,3.80
2022-12-24T10:51:38.275Z,3.85
2022-12-24T10:53:48.419Z,3.15
2022-12-24T10:55:53.691Z,4.20
2022-12-24T10:58:06.621Z,4.07
2022-12-24T11:00:28.546Z,4.45
2022-12-24T11:02:39.502Z,3.88
2022-12-24T11:04:52.348Z,5.03
2022-12-24T11:07:00.239Z,3.63
2022-12-24T11:09:25.708Z,4.53
2022-12-24T11:11:38.262Z,3.63
2022-12-24T11:13:47.060Z,4.47
2022-12-24T11:16:03.144Z,3.45
2022-12-24T11:18:16.557Z,4.63
2022-12-24T11:20:25.528Z,3.53
2022-12-24T11:22:33.521Z,3.97
2022-12-24T11:24:43.781Z,3.33
2022-12-24T11:26:54.822Z,3.25
2022-12-24T11:29:17.954Z,3.20
2022-12-24T11:31:27.044Z,3.17
2022-12-24T11:33:33.772Z,3.03
2022-12-24T11:35:48.187Z,3.05
2022-12-24T11:38:11.499Z,4.53
2022-12-24T11:40:26.644Z,3.08
2022-12-24T11:42:38.102Z,2.55
2022-12-24T11:44:52.204Z,3.83
2022-12-24T11:46:59.831Z,2.83
2022-12-24T11:49:26.348Z,3.40
2022-12-24T11:51:31.251Z,3.78
2022-12-24T11:53:44.318Z,4.05
2022-12-24T11:58:03.983Z,2.83
2022-12-24T12:00:12.931Z,3.42
2022-12-24T12:02:26.187Z,3.78
2022-12-24T12:04:35.755Z,3.72
2022-12-24T12:06:45.845Z,4.05
2022-12-24T12:08:53.375Z,3.47
2022-12-24T12:11:01.471Z,3.60
2022-12-24T12:13:15.780Z,3.78
2022-12-24T12:15:27.619Z,3.92
2022-12-24T12:17:39.805Z,3.10
2022-12-24T12:19:51.886Z,2.95
2022-12-24T12:21:56.896Z,3.67
2022-12-24T12:24:08.657Z,3.58
2022-12-24T12:26:18.281Z,3.25
2022-12-24T12:28:26.157Z,3.72
2022-12-24T12:30:33.618Z,4.28
2022-12-24T12:32:49.201Z,3.78
2022-12-24T12:35:05.873Z,3.72
2022-12-24T12:37:17.209Z,4.85
2022-12-24T12:39:22.388Z,3.55
2022-12-24T12:41:56.508Z,3.72
2022-12-24T12:44:45.757Z,3.13
2022-12-24T12:47:15.231Z,3.28
2022-12-24T12:49:40.290Z,4.18
2022-12-24T12:51:56.820Z,2.97
2022-12-24T12:54:24.612Z,4.03
2022-12-24T12:56:35.614Z,3.55
2022-12-24T12:58:46.548Z,4.38
2022-12-24T13:01:00.573Z,4.70
2022-12-24T13:03:31.243Z,4.63
2022-12-24T13:06:29.185Z,3.47
2022-12-24T13:09:25.279Z,3.80
2022-12-24T13:12:03.662Z,3.40
2022-12-24T13:14:38.634Z,3.28
2022-12-24T13:17:21.802Z,3.13
2022-12-24T13:21:54.272Z,3.13
2022-12-24T13:24:10.043Z,3.60
2022-12-24T13:26:17.715Z,3.20
2022-12-24T13:28:39.780Z,2.88
2022-12-24T13:30:45.509Z,3.35
2022-12-24T13:32:54.536Z,3.25
2022-12-24T13:35:03.626Z,3.42
2022-12-24T13:37:25.544Z,4.18
2022-12-24T13:39:30.464Z,3.97
2022-12-24T13:41:53.842Z,3.95
2022-12-24T13:44:07.403Z,3.80
2022-12-24T13:46:12.761Z,3.65
2022-12-24T13:48:36.116Z,4.07
2022-12-24T13:50:46.242Z,4.18
2022-12-24T13:52:57.125Z,4.13
2022-12-24T13:55:18.248Z,4.20
2022-12-24T13:57:41.435Z,5.20
2022-12-24T14:01:51.762Z,3.85
2022-12-24T14:04:01.908Z,3.97
2022-12-24T14:06:12.457Z,4.13
2022-12-24T14:08:33.071Z,3.45
2022-12-24T14:10:42.693Z,3.60
2022-12-24T14:12:53.728Z,4.10
2022-12-24T14:14:58.642Z,3.72
2022-12-24T14:17:06.068Z,4.35
2022-12-24T14:19:17.890Z,4.00
2022-12-24T14:21:29.735Z,4.22
2022-12-24T14:23:55.265Z,4.13
2022-12-24T14:26:01.205Z,4.18
2022-12-24T14:28:19.094Z,4.18
2022-12-24T14:30:26.682Z,4.32
2022-12-24T14:32:38.824Z,4.35
2022-12-24T14:34:43.766Z,5.75
2022-12-24T14:36:50.343Z,5.10
2022-12-24T14:39:02.958Z,4.90
2022-12-24T14:41:21.936Z,4.53
2022-12-24T14:43:48.830Z,4.53
2022-12-24T14:46:07.714Z,3.60
2022-12-24T14:48:21.963Z,3.70
2022-12-24T14:50:53.716Z,4.22
2022-12-24T14:53:16.682Z,3.95
2022-12-24T14:55:42.897Z,4.63
2022-12-24T14:57:47.845Z,4.25
2022-12-24T14:59:55.974Z,4.32
2022-12-24T15:02:00.997Z,4.10
2022-12-24T15:04:17.609Z,4.32
2022-12-24T15:06:22.637Z,4.60
2022-12-24T15:08:34.011Z,3.70
2022-12-24T15:10:45.136Z,3.90
2022-12-24T15:12:50.479Z,5.05
2022-12-24T15:14:55.439Z,4.43
2022-12-24T15:17:04.627Z,4.53
2022-12-24T15:19:21.586Z,4.13
2022-12-24T15:21:32.629Z,5.00
2022-12-24T15:23:39.840Z,4.38
2022-12-24T15:25:47.394Z,4.25
2022-12-24T15:27:52.834Z,4.53
2022-12-24T15:30:00.714Z,4.47
2022-12-24T15:32:07.181Z,4.68
2022-12-24T15:34:30.647Z,3.47
2022-12-24T15:36:38.642Z,3.65
2022-12-24T15:38:46.461Z,4.45
2022-12-24T15:40:54.560Z,3.65
2022-12-24T15:42:59.546Z,4.82
2022-12-24T15:45:09.107Z,4.05
2022-12-24T15:47:21.987Z,3.63
2022-12-24T15:49:28.188Z,4.07
2022-12-24T15:51:40.257Z,4.05
2022-12-24T15:53:49.196Z,4.40
2022-12-24T15:56:09.856Z,4.18
2022-12-24T15:58:28.580Z,4.22
2022-12-24T16:00:33.827Z,3.85
2022-12-24T16:02:42.675Z,4.43
2022-12-24T16:04:47.777Z,5.20
2022-12-24T16:06:59.289Z,5.00
2022-12-24T16:09:05.198Z,6.85
2022-12-24T16:11:19.445Z,4.80
2022-12-24T16:13:28.369Z,5.40
2022-12-24T16:15:33.663Z,6.28
2022-12-24T16:17:38.683Z,6.82
2022-12-24T16:19:44.176Z,6.47
2022-12-24T16:21:53.549Z,6.53
2022-12-24T16:24:06.762Z,5.97
2022-12-24T16:28:22.853Z,6.10
2022-12-24T16:30:28.176Z,7.00
2022-12-24T16:32:38.234Z,7.05
2022-12-24T16:34:44.290Z,5.90
2022-12-24T16:36:50.271Z,5.25
2022-12-24T16:39:07.708Z,5.80
2022-12-24T16:41:12.611Z,6.10
2022-12-24T16:43:32.999Z,5.55
2022-12-24T16:45:40.465Z,5.40
2022-12-24T16:47:45.419Z,5.38
2022-12-24T16:49:50.443Z,5.68
2022-12-24T16:51:55.917Z,5.20
2022-12-24T16:54:01.330Z,6.57
2022-12-24T16:56:06.835Z,6.20
2022-12-24T16:58:14.851Z,7.00
2022-12-24T17:00:26.943Z,6.70
2022-12-24T17:02:32.031Z,4.95
2022-12-24T17:04:37.846Z,4.82
2022-12-24T17:06:43.285Z,5.28
2022-12-24T17:08:48.204Z,4.65
2022-12-24T17:10:54.508Z,4.43
2022-12-24T17:12:59.998Z,4.95
2022-12-24T17:15:05.406Z,4.38
2022-12-24T17:17:24.196Z,4.88
2022-12-24T17:19:29.197Z,4.88
2022-12-24T17:21:34.529Z,5.13
2022-12-24T17:23:40.259Z,4.97
2022-12-24T17:25:45.867Z,5.40
2022-12-24T17:27:50.875Z,5.55
2022-12-24T17:29:56.103Z,5.40
2022-12-24T17:32:01.191Z,5.30
2022-12-24T17:34:10.140Z,7.75
2022-12-24T17:36:15.090Z,7.32
2022-12-24T17:38:20.528Z,7.65
2022-12-24T17:40:25.636Z,8.00
2022-12-24T17:42:30.520Z,8.55
2022-12-24T17:44:36.070Z,8.82
2022-12-24T17:46:41.024Z,9.45
2022-12-24T17:48:46.998Z,9.02
2022-12-24T17:50:55.140Z,8.95
2022-12-24T17:53:00.041Z,8.75
2022-12-24T17:55:05.123Z,8.80
2022-12-24T17:57:10.306Z,8.15
2022-12-24T17:59:15.411Z,9.15
2022-12-24T18:01:23.773Z,10.10
2022-12-24T18:03:29.697Z,7.25
2022-12-24T18:05:37.828Z,8.70
2022-12-24T18:07:46.543Z,9.32
2022-12-24T18:09:51.503Z,8.60
2022-12-24T18:11:56.940Z,9.27
2022-12-24T18:14:03.825Z,9.43
2022-12-24T18:16:18.753Z,10.07
2022-12-24T18:18:24.244Z,10.20
2022-12-24T18:20:29.898Z,10.15
2022-12-24T18:22:35.123Z,10.20
2022-12-24T18:24:42.650Z,10.50
2022-12-24T18:26:48.844Z,9.57
2022-12-24T18:28:56.696Z,11.55
2022-12-24T18:31:02.678Z,10.80
2022-12-24T18:33:07.999Z,10.95
2022-12-24T18:35:13.764Z,12.35
2022-12-24T18:37:18.677Z,11.23
2022-12-24T18:39:24.101Z,12.63
2022-12-24T18:41:33.193Z,11.23
2022-12-24T18:43:38.934Z,11.32
2022-12-24T18:45:44.390Z,10.70
2022-12-24T18:47:50.823Z,10.90
2022-12-24T18:49:56.092Z,11.55
2022-12-24T18:52:01.375Z,13.38
2022-12-24T18:54:07.486Z,12.65
2022-12-24T18:58:26.945Z,12.82
2022-12-24T19:00:32.795Z,12.20
2022-12-24T19:02:37.818Z,14.00
2022-12-24T19:04:43.320Z,15.00
2022-12-24T19:06:53.197Z,15.30
2022-12-24T19:09:00.296Z,15.60
2022-12-24T19:11:06.379Z,15.82
2022-12-24T19:13:12.370Z,16.45
2022-12-24T19:15:20.129Z,15.25
2022-12-24T19:17:25.063Z,17.23
2022-12-24T19:19:30.813Z,16.15
2022-12-24T19:21:35.853Z,15.88
2022-12-24T19:23:40.928Z,13.80
2022-12-24T19:25:46.382Z,14.18
2022-12-24T19:27:51.297Z,13.20
2022-12-24T19:29:56.644Z,13.15
2022-12-24T19:32:04.170Z,15.82
2022-12-24T19:34:09.208Z,13.95
2022-12-24T19:36:18.249Z,11.90
2022-12-24T19:38:23.403Z,11.65
2022-12-24T19:40:28.819Z,14.98
2022-12-24T19:42:37.027Z,13.57
2022-12-24T19:44:42.303Z,13.55
2022-12-24T19:46:47.655Z,13.02
2022-12-24T19:48:58.240Z,15.57
2022-12-24T19:51:04.421Z,15.80
2022-12-24T19:53:09.326Z,14.57
2022-12-24T19:55:15.374Z,16.77
2022-12-24T19:57:21.270Z,14.70
2022-12-24T19:59:26.206Z,15.75
2022-12-24T20:01:34.141Z,15.70
2022-12-24T20:03:39.577Z,16.38
2022-12-24T20:05:47.470Z,15.15
2022-12-24T20:07:52.357Z,15.27
2022-12-24T20:09:57.276Z,15.40
2022-12-24T20:12:03.906Z,15.02
2022-12-24T20:14:09.669Z,15.50
2022-12-24T20:16:18.230Z,16.30
2022-12-24T20:18:23.794Z,17.08
2022-12-24T20:20:28.831Z,17.30
2022-12-24T20:22:36.332Z,18.67
2022-12-24T20:24:41.223Z,18.50
2022-12-24T20:26:46.262Z,18.45
2022-12-24T20:28:54.450Z,18.25
2022-12-24T20:30:59.669Z,17.35
2022-12-24T20:33:04.702Z,18.30
2022-12-24T20:35:11.267Z,17.92
2022-12-24T20:37:16.175Z,17.88
2022-12-24T20:39:23.921Z,17.38
2022-12-24T20:41:32.583Z,17.88
2022-12-24T20:43:45.084Z,17.45
2022-12-24T20:45:54.325Z,19.27
2022-12-24T20:47:59.735Z,16.63
2022-12-24T20:50:04.698Z,17.48
2022-12-24T20:52:09.809Z,17.83
2022-12-24T20:54:15.121Z,17.33
2022-12-24T20:56:22.720Z,18.70
2022-12-24T20:58:27.665Z,16.73
2022-12-24T21:00:32.652Z,15.73
2022-12-24T21:02:37.813Z,15.40
2022-12-24T21:04:42.949Z,14.60
2022-12-24T21:06:47.900Z,15.98
2022-12-24T21:08:54.623Z,14.63
2022-12-24T21:11:11.961Z,14.52
2022-12-24T21:13:19.746Z,15.68
2022-12-24T21:15:27.146Z,13.93
2022-12-24T21:17:32.306Z,14.93
2022-12-24T21:19:37.209Z,15.15
2022-12-24T21:21:42.567Z,14.00
2022-12-24T21:23:47.735Z,15.88
2022-12-24T21:26:01.336Z,14.63
2022-12-24T21:28:06.469Z,16.48
2022-12-24T21:30:15.114Z,13.95
2022-12-24T21:32:20.026Z,14.85
2022-12-24T21:34:25.044Z,14.68
2022-12-24T21:36:29.960Z,15.95
2022-12-24T21:38:35.202Z,14.68
2022-12-24T21:40:41.558Z,14.90
2022-12-24T21:42:46.616Z,14.82
2022-12-24T21:44:51.675Z,15.10
2022-12-24T21:46:59.122Z,15.48
2022-12-24T21:49:16.634Z,15.40
2022-12-24T21:51:21.603Z,15.15
2022-12-24T21:53:39.169Z,13.60
2022-12-24T21:55:44.073Z,15.50
2022-12-24T21:57:55.573Z,13.95
2022-12-24T22:00:21.903Z,14.18
2022-12-24T22:02:30.061Z,15.90
2022-12-24T22:04:35.576Z,14.45
2022-12-24T22:06:53.020Z,14.55
2022-12-24T22:09:11.728Z,14.38
2022-12-24T22:11:30.188Z,13.50
2022-12-24T22:13:35.820Z,12.88
2022-12-24T22:15:47.705Z,13.30
2022-12-24T22:17:55.640Z,11.90
2022-12-24T22:20:01.959Z,11.20
2022-12-24T22:22:07.199Z,13.77
2022-12-24T22:24:12.523Z,12.80
2022-12-24T22:26:20.255Z,16.42
2022-12-24T22:31:26.470Z,16.40
2022-12-24T22:33:36.419Z,9.70
2022-12-24T22:35:44.331Z,16.30
2022-12-24T22:37:53.041Z,15.70
2022-12-24T22:40:00.926Z,14.35
2022-12-24T22:42:09.276Z,13.07
2022-12-24T22:47:21.229Z,16.05
2022-12-24T22:49:28.727Z,17.35
2022-12-24T22:51:33.885Z,18.83
2022-12-24T22:53:39.517Z,18.25
2022-12-24T22:55:44.412Z,19.30
2022-12-24T22:57:49.527Z,15.75
2022-12-24T22:59:55.065Z,13.20
2022-12-24T23:02:00.146Z,14.00
2022-12-24T23:04:06.139Z,15.98
2022-12-24T23:06:14.672Z,17.77
2022-12-24T23:08:19.566Z,18.15
2022-12-24T23:10:25.224Z,17.13
2022-12-24T23:12:43.503Z,16.55
2022-12-24T23:15:00.615Z,14.40
2022-12-24T23:17:06.243Z,18.13
2022-12-24T23:19:12.789Z,18.55
2022-12-24T23:21:20.573Z,18.10
2022-12-24T23:23:25.555Z,22.20
2022-12-24T23:25:30.472Z,20.20
2022-12-24T23:27:35.396Z,16.25
2022-12-24T23:29:40.762Z,15.50
2022-12-24T23:31:45.663Z,15.60
2022-12-24T23:33:51.914Z,14.68
2022-12-24T23:35:57.176Z,17.00
2022-12-24T23:38:05.030Z,18.88
2022-12-24T23:40:12.338Z,17.02
2022-12-24T23:42:17.280Z,14.75
2022-12-24T23:44:28.206Z,16.98
2022-12-24T23:46:36.805Z,17.20
2022-12-24T23:48:42.283Z,15.70
2022-12-24T23:50:48.585Z,16.42
2022-12-24T23:52:53.765Z,15.85
2022-12-24T23:55:01.444Z,15.32
2022-12-24T23:57:06.433Z,16.70
2022-12-24T23:59:11.677Z,16.23
